Home   Weather   Russia   Saint-Petersburg   Past weeks
Flag for Russia

Past Weather in Saint-Petersburg, Russia — Yesterday and Last 2 Weeks

Currently: 63 °F. Passing clouds. (Weather station: St. Petersburg, Russia). See more current weather

Past Weather in Saint-Petersburg — Graph

°F

Saint-Petersburg Temperature Yesterday

Maximum temperature yesterday: 66 °F (at 10:18 am)
Minimum temperature yesterday: 50 °F (at 2:30 am)
Average temperature yesterday: 59 °F

High & Low Weather Summary for the Past Weeks

 TemperatureHumidityPressure
High84 °F (May 31, 4:30 pm)100% (Jun 4, 2:30 am)30.04 "Hg (Jun 4, 2:30 am)
Low46 °F (Jun 9, 5:00 am)42% (Jun 1, 5:30 pm)29.56 "Hg (Jun 9, 5:30 pm)
Average63 °F73%29.80 "Hg
* Reported May 31 7:00 am — Jun 15 7:30 am, Saint-Petersburg. Weather by CustomWeather, © 2024

Note: Actual official high and low records may vary slightly from our data, if they occured in-between our weather recording intervals... More about our weather records

Saint-Petersburg Weather History for the Previous 24 Hours

Scroll right to see more
 ConditionsComfort  
Time TempWeatherWind HumidityBarometerVisibility
7:30 am
Sat, Jun 15
61 °FPassing clouds.8 mph83%29.98 "HgN/A
6:30 am55 °FSunny.1 mph88%29.98 "Hg10 mi
6:00 am50 °FSunny.1 mph100%29.98 "Hg10 mi
5:30 am50 °FSunny.3 mph100%29.98 "Hg10 mi
5:00 am50 °FSunny.3 mph100%29.98 "Hg10 mi
4:00 am50 °FPassing clouds.3 mph94%29.98 "HgN/A
3:30 am50 °FPassing clouds.3 mph100%29.98 "HgN/A
3:00 am52 °FPassing clouds.1 mph94%29.98 "HgN/A
2:30 am50 °FPassing clouds.3 mph100%29.98 "HgN/A
2:00 am52 °FPassing clouds.3 mph94%29.98 "HgN/A
1:30 am52 °FPassing clouds.6 mph94%29.98 "HgN/A
1:00 am54 °FPassing clouds.6 mph88%29.98 "HgN/A
12:30 am55 °FPassing clouds.3 mph82%29.98 "HgN/A
12:00 am55 °FPassing clouds.6 mph82%29.98 "HgN/A
11:30 pm
Fri, Jun 14
54 °FClear.3 mph88%29.98 "Hg10 mi
11:00 pm54 °FPassing clouds.3 mph88%29.98 "HgN/A
10:30 pm55 °FClear.3 mph82%29.98 "Hg10 mi
10:00 pm55 °FSunny.No wind82%29.98 "Hg10 mi
9:30 pm55 °FSunny.3 mph82%29.98 "Hg10 mi
9:00 pm57 °FSunny.3 mph77%29.98 "Hg10 mi
8:00 pm59 °FPassing clouds.8 mph72%29.98 "HgN/A
7:30 pm59 °FPassing clouds.13 mph77%29.98 "HgN/A
7:00 pm63 °FPassing clouds.13 mph68%29.98 "HgN/A
6:30 pm64 °FSunny.10 mph60%29.98 "Hg10 mi
6:00 pm64 °FSunny.10 mph60%29.95 "Hg10 mi
5:30 pm63 °FPassing clouds.10 mph59%29.95 "HgN/A
4:30 pm64 °FPassing clouds.8 mph60%29.95 "HgN/A
3:30 pm64 °FPassing clouds.8 mph60%29.98 "HgN/A
3:00 pm64 °FPassing clouds.8 mph56%29.95 "HgN/A
2:00 pm66 °FPassing clouds.8 mph52%29.98 "HgN/A
1:30 pm66 °FPassing clouds.8 mph56%29.98 "HgN/A
1:00 pm66 °FPassing clouds.8 mph56%29.98 "HgN/A
12:30 pm64 °FPassing clouds.8 mph56%29.98 "HgN/A
12:00 pm64 °FPassing clouds.8 mph56%29.98 "HgN/A
11:30 am64 °FPassing clouds.10 mph49%29.98 "HgN/A
11:00 am64 °FPassing clouds.10 mph49%29.98 "HgN/A
10:30 am64 °FPassing clouds.10 mph43%29.98 "HgN/A
10:18 am66 °FPassing clouds.10 mph46%29.98 "HgN/A
10:00 am63 °FPassing clouds.8 mph52%29.98 "HgN/A
9:30 am63 °FPassing clouds.10 mph52%29.98 "HgN/A
9:00 am63 °FPassing clouds.8 mph52%29.98 "HgN/A
8:30 am63 °FPassing clouds.6 mph73%29.98 "HgN/A
8:00 am63 °FPassing clouds.6 mph73%29.98 "HgN/A
Weather by CustomWeather, © 2024

See weather overview